createdAt,value
2022-10-23T00:01:28.452Z,7.23
2022-10-23T00:04:01.459Z,6.32
2022-10-23T00:06:29.539Z,6.55
2022-10-23T00:08:56.428Z,6.88
2022-10-23T00:11:28.855Z,6.10
2022-10-23T00:13:57.922Z,5.80
2022-10-23T00:16:24.412Z,6.60
2022-10-23T00:18:50.949Z,6.50
2022-10-23T00:21:17.959Z,6.03
2022-10-23T00:23:44.881Z,6.22
2022-10-23T00:26:15.739Z,6.50
2022-10-23T00:28:44.051Z,6.60
2022-10-23T00:31:11.379Z,6.13
2022-10-23T00:33:38.271Z,7.05
2022-10-23T00:36:07.017Z,5.57
2022-10-23T00:38:33.898Z,5.73
2022-10-23T00:41:00.854Z,6.05
2022-10-23T00:43:30.664Z,6.32
2022-10-23T00:45:58.408Z,5.50
2022-10-23T00:48:27.480Z,6.25
2022-10-23T00:50:55.756Z,6.27
2022-10-23T00:53:23.031Z,6.10
2022-10-23T00:55:53.148Z,6.25
2022-10-23T00:58:21.471Z,5.95
2022-10-23T01:00:49.801Z,6.10
2022-10-23T01:03:19.202Z,6.50
2022-10-23T01:06:03.393Z,6.10
2022-10-23T01:08:42.960Z,5.95
2022-10-23T01:11:17.999Z,6.20
2022-10-23T01:14:10.707Z,5.80
2022-10-23T01:16:41.536Z,5.40
2022-10-23T01:19:26.372Z,6.13
2022-10-23T01:22:13.342Z,6.03
2022-10-23T01:24:51.121Z,5.25
2022-10-23T01:27:32.789Z,5.97
2022-10-23T01:30:05.913Z,6.30
2022-10-23T01:32:43.565Z,6.45
2022-10-23T01:35:15.190Z,6.68
2022-10-23T01:38:01.091Z,5.78
2022-10-23T01:40:37.557Z,6.55
2022-10-23T01:43:08.927Z,6.63
2022-10-23T01:45:42.657Z,6.25
2022-10-23T01:48:13.778Z,6.45
2022-10-23T01:50:42.787Z,6.03
2022-10-23T01:53:09.869Z,6.78
2022-10-23T01:55:39.335Z,5.73
2022-10-23T01:58:08.594Z,6.78
2022-10-23T02:00:38.648Z,6.25
2022-10-23T02:03:08.691Z,6.20
2022-10-23T02:05:35.809Z,5.80
2022-10-23T02:08:03.027Z,6.13
2022-10-23T02:11:04.459Z,6.40
2022-10-23T02:13:45.258Z,6.57
2022-10-23T02:16:24.061Z,6.38
2022-10-23T02:19:05.899Z,5.95
2022-10-23T02:21:38.731Z,5.60
2022-10-23T02:24:14.348Z,6.20
2022-10-23T02:26:49.463Z,6.20
2022-10-23T02:29:28.226Z,5.55
2022-10-23T02:31:54.748Z,5.50
2022-10-23T02:34:21.398Z,5.83
2022-10-23T02:36:48.172Z,5.40
2022-10-23T02:39:14.931Z,6.32
2022-10-23T02:41:47.127Z,6.03
2022-10-23T02:44:39.361Z,5.55
2022-10-23T02:47:33.929Z,4.53
2022-10-23T02:50:22.215Z,5.65
2022-10-23T02:53:01.740Z,4.53
2022-10-23T02:55:53.108Z,5.25
2022-10-23T02:58:54.939Z,5.28
2022-10-23T03:01:26.434Z,4.47
2022-10-23T03:03:57.083Z,5.38
2022-10-23T03:06:24.586Z,5.15
2022-10-23T03:09:09.743Z,3.83
2022-10-23T03:11:36.763Z,5.05
2022-10-23T03:14:03.523Z,4.83
2022-10-23T03:16:30.780Z,5.38
2022-10-23T03:18:57.495Z,5.32
2022-10-23T03:21:24.409Z,5.45
2022-10-23T03:23:51.115Z,5.40
2022-10-23T03:26:17.805Z,5.50
2022-10-23T03:28:44.412Z,5.65
2022-10-23T03:31:11.187Z,5.10
2022-10-23T03:33:37.784Z,5.50
2022-10-23T03:36:04.765Z,5.03
2022-10-23T03:38:31.920Z,4.90
2022-10-23T03:40:58.439Z,5.38
2022-10-23T03:43:25.094Z,5.50
2022-10-23T03:45:52.186Z,4.70
2022-10-23T03:48:18.729Z,4.75
2022-10-23T03:50:45.174Z,4.70
2022-10-23T03:53:11.682Z,4.90
2022-10-23T03:55:38.138Z,4.47
2022-10-23T03:58:04.628Z,4.50
2022-10-23T04:00:31.360Z,4.45
2022-10-23T04:02:58.093Z,4.97
2022-10-23T04:05:24.923Z,5.05
2022-10-23T04:07:51.516Z,4.82
2022-10-23T04:10:18.120Z,4.38
2022-10-23T04:12:45.153Z,4.40
2022-10-23T04:15:12.130Z,4.50
2022-10-23T04:17:38.794Z,3.80
2022-10-23T04:20:05.871Z,5.07
2022-10-23T04:22:32.382Z,4.55
2022-10-23T04:24:58.855Z,4.18
2022-10-23T04:27:25.462Z,4.80
2022-10-23T04:29:54.355Z,4.80
2022-10-23T04:32:23.605Z,4.15
2022-10-23T04:34:50.208Z,4.18
2022-10-23T04:37:17.155Z,4.78
2022-10-23T04:39:43.608Z,4.87
2022-10-23T04:42:10.104Z,3.88
2022-10-23T04:44:38.838Z,4.40
2022-10-23T04:47:05.408Z,4.03
2022-10-23T04:49:31.914Z,4.47
2022-10-23T04:51:58.488Z,3.87
2022-10-23T04:54:25.112Z,4.55
2022-10-23T04:56:51.800Z,4.22
2022-10-23T04:59:18.315Z,4.15
2022-10-23T05:01:45.381Z,4.72
2022-10-23T05:04:12.076Z,4.10
2022-10-23T05:06:38.487Z,3.95
2022-10-23T05:09:04.982Z,3.45
2022-10-23T05:11:33.170Z,4.57
2022-10-23T05:47:13.899Z,3.95
2022-10-23T05:49:40.434Z,3.63
2022-10-23T05:52:07.112Z,4.23
2022-10-23T05:54:33.625Z,4.05
2022-10-23T05:57:00.303Z,4.72
2022-10-23T05:59:26.998Z,3.75
2022-10-23T06:01:53.680Z,4.43
2022-10-23T06:04:20.366Z,4.00
2022-10-23T06:06:47.873Z,3.92
2022-10-23T06:09:15.657Z,4.43
2022-10-23T06:11:42.723Z,4.18
2022-10-23T06:14:09.218Z,5.20
2022-10-23T06:16:36.374Z,4.33
2022-10-23T06:19:03.316Z,4.00
2022-10-23T06:21:29.776Z,4.18
2022-10-23T06:23:56.712Z,3.90
2022-10-23T06:26:23.465Z,4.55
2022-10-23T06:28:50.167Z,4.33
2022-10-23T06:31:19.161Z,4.40
2022-10-23T06:33:47.255Z,4.50
2022-10-23T06:36:13.992Z,5.15
2022-10-23T06:38:40.838Z,4.80
2022-10-23T06:41:18.428Z,4.60
2022-10-23T06:43:47.528Z,4.80
2022-10-23T06:46:14.486Z,5.35
2022-10-23T06:48:44.984Z,4.20
2022-10-23T06:51:14.951Z,4.07
2022-10-23T06:53:41.926Z,4.30
2022-10-23T06:56:12.548Z,4.72
2022-10-23T06:58:39.774Z,4.95
2022-10-23T07:01:09.513Z,3.83
2022-10-23T07:03:36.440Z,5.00
2022-10-23T07:06:04.887Z,4.57
2022-10-23T07:08:32.336Z,4.00
2022-10-23T07:11:05.940Z,4.13
2022-10-23T07:13:34.499Z,3.80
2022-10-23T07:16:10.497Z,4.25
2022-10-23T07:18:37.199Z,3.73
2022-10-23T07:21:04.016Z,4.10
2022-10-23T07:23:30.500Z,4.30
2022-10-23T07:26:03.366Z,3.35
2022-10-23T07:28:30.076Z,3.95
2022-10-23T07:30:58.808Z,3.87
2022-10-23T07:33:25.629Z,3.70
2022-10-23T07:35:52.218Z,4.15
2022-10-23T07:38:19.026Z,3.85
2022-10-23T07:40:45.862Z,3.90
2022-10-23T07:43:12.541Z,2.73
2022-10-23T07:45:39.487Z,3.50
2022-10-23T07:48:06.099Z,3.88
2022-10-23T07:50:32.764Z,3.45
2022-10-23T07:52:59.429Z,4.18
2022-10-23T07:55:26.193Z,3.43
2022-10-23T07:57:52.933Z,2.90
2022-10-23T08:00:20.306Z,3.80
2022-10-23T08:02:46.983Z,3.72
2022-10-23T08:05:13.954Z,4.03
2022-10-23T08:07:43.912Z,3.27
2022-10-23T08:10:10.852Z,3.53
2022-10-23T08:12:38.719Z,3.30
2022-10-23T08:15:05.745Z,3.30
2022-10-23T08:17:32.697Z,3.47
2022-10-23T08:19:59.563Z,3.27
2022-10-23T08:22:26.121Z,3.28
2022-10-23T08:24:55.070Z,2.97
2022-10-23T08:27:21.784Z,3.00
2022-10-23T08:29:48.596Z,3.05
2022-10-23T08:32:15.524Z,3.60
2022-10-23T08:34:42.213Z,2.97
2022-10-23T08:37:08.910Z,4.25
2022-10-23T08:39:36.752Z,2.63
2022-10-23T08:42:03.682Z,3.22
2022-10-23T08:44:36.693Z,2.70
2022-10-23T08:47:19.000Z,2.85
2022-10-23T08:50:03.745Z,3.33
2022-10-23T08:52:47.878Z,2.85
2022-10-23T08:55:26.441Z,3.85
2022-10-23T08:58:08.478Z,3.57
2022-10-23T09:00:35.133Z,3.22
2022-10-23T09:03:05.454Z,3.22
2022-10-23T09:05:52.634Z,3.25
2022-10-23T09:08:33.852Z,3.35
2022-10-23T09:11:06.181Z,3.50
2022-10-23T09:13:50.640Z,3.50
2022-10-23T09:16:35.847Z,2.97
2022-10-23T09:19:02.601Z,2.88
2022-10-23T09:21:30.138Z,2.05
2022-10-23T09:23:58.331Z,2.60
2022-10-23T09:26:26.478Z,2.20
2022-10-23T09:29:02.396Z,2.70
2022-10-23T09:31:28.879Z,2.53
2022-10-23T09:34:01.388Z,2.45
2022-10-23T09:36:29.785Z,2.27
2022-10-23T09:39:00.004Z,2.35
2022-10-23T09:41:29.473Z,2.50
2022-10-23T09:44:08.120Z,2.22
2022-10-23T09:49:19.981Z,2.33
2022-10-23T09:51:54.693Z,2.10
2022-10-23T09:54:24.207Z,2.22
2022-10-23T09:56:53.910Z,2.08
2022-10-23T09:59:31.120Z,2.47
2022-10-23T10:02:01.491Z,3.07
2022-10-23T10:04:36.238Z,3.55
2022-10-23T10:07:05.965Z,2.97
2022-10-23T10:09:33.394Z,3.10
2022-10-23T10:12:19.643Z,2.72
2022-10-23T10:14:55.349Z,2.43
2022-10-23T10:17:35.065Z,1.95
2022-10-23T10:20:14.089Z,3.05
2022-10-23T10:22:54.363Z,2.40
2022-10-23T10:25:31.940Z,2.67
2022-10-23T10:28:31.753Z,2.50
2022-10-23T10:31:24.015Z,2.78
2022-10-23T10:33:59.749Z,2.80
2022-10-23T10:36:49.295Z,2.25
2022-10-23T10:39:32.151Z,1.65
2022-10-23T10:42:28.077Z,2.10
2022-10-23T10:45:10.667Z,1.90
2022-10-23T10:47:47.696Z,2.38
2022-10-23T10:50:20.070Z,2.00
2022-10-23T10:52:59.946Z,1.98
2022-10-23T10:55:38.400Z,2.00
2022-10-23T10:58:20.194Z,2.05
2022-10-23T11:00:50.767Z,2.35
2022-10-23T11:03:40.135Z,2.13
2022-10-23T11:06:15.019Z,1.95
2022-10-23T11:08:57.644Z,1.63
2022-10-23T11:11:34.590Z,2.15
2022-10-23T11:14:02.198Z,1.90
2022-10-23T11:16:38.144Z,1.83
2022-10-23T11:19:14.260Z,1.98
2022-10-23T11:21:44.768Z,1.87
2022-10-23T11:24:36.036Z,2.95
2022-10-23T11:27:08.438Z,1.80
2022-10-23T11:29:47.197Z,1.90
2022-10-23T11:32:22.491Z,2.08
2022-10-23T11:35:26.043Z,1.60
2022-10-23T11:38:15.110Z,2.00
2022-10-23T11:40:52.788Z,1.75
2022-10-23T11:43:31.212Z,1.63
2022-10-23T11:45:58.207Z,2.13
2022-10-23T11:48:43.861Z,1.70
2022-10-23T11:51:33.771Z,1.63
2022-10-23T11:54:07.698Z,1.88
2022-10-23T11:56:34.647Z,1.60
2022-10-23T11:59:22.343Z,1.35
2022-10-23T12:01:51.860Z,1.87
2022-10-23T12:04:24.102Z,1.70
2022-10-23T12:06:56.388Z,1.60
2022-10-23T12:09:40.900Z,1.80
2022-10-23T12:12:07.435Z,1.40
2022-10-23T12:14:41.033Z,1.27
2022-10-23T12:17:27.371Z,1.60
2022-10-23T12:19:55.578Z,1.40
2022-10-23T12:22:31.250Z,1.60
2022-10-23T12:24:58.826Z,1.52
2022-10-23T12:27:33.625Z,1.40
2022-10-23T12:30:40.147Z,1.92
2022-10-23T12:33:19.326Z,1.45
2022-10-23T12:36:17.197Z,1.55
2022-10-23T12:38:46.559Z,1.58
2022-10-23T13:06:04.644Z,1.25
2022-10-23T13:08:36.950Z,1.40
2022-10-23T13:11:05.288Z,1.30
2022-10-23T13:13:32.297Z,1.70
2022-10-23T13:15:59.211Z,2.67
2022-10-23T13:18:25.835Z,1.50
2022-10-23T13:20:52.479Z,1.23
2022-10-23T13:23:22.131Z,1.67
2022-10-23T13:26:03.147Z,1.70
2022-10-23T13:28:34.066Z,1.27
2022-10-23T13:31:08.315Z,1.10
2022-10-23T13:33:42.161Z,1.55
2022-10-23T13:36:13.620Z,1.60
2022-10-23T13:38:46.592Z,1.45
2022-10-23T13:41:17.262Z,1.23
2022-10-23T13:43:45.998Z,1.60
2022-10-23T13:46:17.639Z,1.83
2022-10-23T13:48:44.803Z,1.83
2022-10-23T13:51:16.407Z,1.60
2022-10-23T13:53:43.083Z,1.60
2022-10-23T13:56:14.531Z,1.58
2022-10-23T13:58:45.435Z,1.40
2022-10-23T14:01:24.947Z,2.45
2022-10-23T14:03:55.150Z,1.73
2022-10-23T14:06:24.976Z,1.50
2022-10-23T14:08:52.222Z,2.40
2022-10-23T14:11:23.802Z,1.73
2022-10-23T14:13:52.594Z,1.60
2022-10-23T14:16:24.857Z,1.80
2022-10-23T14:18:51.425Z,1.90
2022-10-23T14:21:20.381Z,1.75
2022-10-23T14:23:49.983Z,1.27
2022-10-23T14:26:20.005Z,1.63
2022-10-23T14:28:46.811Z,1.63
2022-10-23T14:31:16.619Z,1.53
2022-10-23T14:33:45.188Z,1.30
2022-10-23T14:36:12.556Z,1.25
2022-10-23T14:38:39.401Z,1.70
2022-10-23T14:41:14.528Z,1.70
2022-10-23T14:43:44.176Z,1.53
2022-10-23T14:46:17.162Z,1.92
2022-10-23T14:48:46.244Z,1.30
2022-10-23T14:51:19.197Z,1.60
2022-10-23T14:53:46.406Z,2.13
2022-10-23T15:05:20.434Z,1.98
2022-10-23T15:07:47.112Z,1.50
2022-10-23T15:10:14.012Z,1.67
2022-10-23T15:12:40.930Z,1.87
2022-10-23T15:15:08.656Z,2.20
2022-10-23T15:17:39.173Z,1.63
2022-10-23T15:20:06.542Z,1.45
2022-10-23T15:22:33.264Z,1.50
2022-10-23T15:25:00.196Z,1.50
2022-10-23T15:27:26.862Z,1.90
2022-10-23T15:29:53.518Z,2.47
2022-10-23T15:32:20.312Z,1.95
2022-10-23T15:34:49.695Z,2.55
2022-10-23T15:37:16.750Z,2.20
2022-10-23T15:39:47.322Z,1.83
2022-10-23T15:42:14.245Z,2.67
2022-10-23T15:44:41.398Z,2.10
2022-10-23T15:47:09.156Z,1.98
2022-10-23T15:49:36.023Z,1.90
2022-10-23T15:52:04.917Z,1.73
2022-10-23T15:54:32.979Z,1.58
2022-10-23T15:57:00.627Z,1.63
2022-10-23T15:59:28.544Z,2.67
2022-10-23T16:01:56.803Z,2.87
2022-10-23T16:04:26.061Z,1.88
2022-10-23T16:06:52.811Z,2.40
2022-10-23T16:09:19.342Z,1.90
2022-10-23T16:11:45.916Z,2.30
2022-10-23T16:14:15.263Z,1.90
2022-10-23T16:16:43.712Z,1.98
2022-10-23T16:19:11.244Z,2.50
2022-10-23T16:21:38.023Z,2.20
2022-10-23T16:24:07.334Z,2.17
2022-10-23T16:26:35.131Z,2.30
2022-10-23T16:29:08.518Z,2.10
2022-10-23T16:31:35.702Z,1.80
2022-10-23T16:34:04.895Z,2.17
2022-10-23T16:36:33.649Z,1.92
2022-10-23T16:39:02.700Z,2.20
2022-10-23T16:41:29.250Z,2.13
2022-10-23T16:43:55.940Z,2.22
2022-10-23T16:46:22.902Z,2.30
2022-10-23T16:48:52.170Z,2.38
2022-10-23T16:51:21.726Z,2.73
2022-10-23T16:53:49.132Z,2.47
2022-10-23T16:56:19.698Z,2.17
2022-10-23T16:58:46.912Z,2.55
2022-10-23T17:01:25.470Z,2.30
2022-10-23T17:03:53.453Z,2.40
2022-10-23T17:06:26.021Z,1.95
2022-10-23T17:08:52.747Z,2.42
2022-10-23T17:11:25.405Z,2.30
2022-10-23T17:14:01.914Z,1.90
2022-10-23T17:16:34.800Z,1.67
2022-10-23T17:19:08.368Z,1.85
2022-10-23T17:21:40.521Z,1.95
2022-10-23T17:24:08.533Z,1.50
2022-10-23T17:26:36.191Z,1.63
2022-10-23T17:29:05.173Z,1.70
2022-10-23T17:31:35.194Z,1.67
2022-10-23T17:34:06.461Z,1.60
2022-10-23T17:36:36.889Z,1.70
2022-10-23T17:39:08.447Z,1.80
2022-10-23T17:41:39.291Z,1.40
2022-10-23T17:44:08.249Z,1.08
2022-10-23T17:46:37.504Z,1.88
2022-10-23T17:49:05.485Z,2.17
2022-10-23T17:51:34.191Z,3.10
2022-10-23T17:54:04.949Z,1.53
2022-10-23T17:56:34.502Z,1.88
2022-10-23T17:59:07.491Z,1.80
2022-10-23T18:01:34.497Z,1.95
2022-10-23T18:04:04.335Z,1.70
2022-10-23T18:06:35.516Z,1.80
2022-10-23T18:09:04.120Z,1.60
2022-10-23T18:11:33.820Z,1.60
2022-10-23T18:14:01.445Z,1.50
2022-10-23T18:16:31.113Z,1.70
2022-10-23T18:19:02.520Z,1.73
2022-10-23T18:21:29.305Z,1.40
2022-10-23T18:23:56.321Z,1.35
2022-10-23T18:26:26.077Z,1.55
2022-10-23T18:28:58.908Z,1.65
2022-10-23T18:31:29.976Z,1.80
2022-10-23T18:34:03.329Z,2.25
2022-10-23T19:03:41.276Z,1.70
2022-10-23T19:06:08.621Z,1.60
2022-10-23T19:08:41.012Z,1.38
2022-10-23T19:11:09.898Z,1.92
2022-10-23T19:13:39.120Z,1.77
2022-10-23T19:16:18.133Z,2.00
2022-10-23T19:18:50.647Z,1.60
2022-10-23T19:21:22.631Z,1.40
2022-10-23T19:23:49.827Z,2.80
2022-10-23T19:26:17.233Z,2.35
2022-10-23T19:28:49.234Z,1.55
2022-10-23T19:31:18.951Z,1.97
2022-10-23T19:33:47.852Z,1.80
2022-10-23T19:36:23.401Z,1.73
2022-10-23T19:38:50.485Z,1.40
2022-10-23T19:41:18.425Z,1.67
2022-10-23T19:43:47.073Z,0.87
2022-10-23T19:46:17.075Z,1.50
2022-10-23T19:48:45.295Z,2.15
2022-10-23T19:51:15.704Z,1.42
2022-10-23T19:53:43.042Z,1.92
2022-10-23T19:56:14.197Z,2.53
2022-10-23T19:58:41.238Z,1.65
2022-10-23T20:01:15.784Z,1.65
2022-10-23T20:12:47.434Z,1.47
2022-10-23T20:15:23.492Z,1.20
2022-10-23T20:17:50.063Z,1.50
2022-10-23T20:20:16.753Z,1.45
2022-10-23T20:22:44.183Z,1.23
2022-10-23T20:25:11.116Z,1.17
2022-10-23T20:30:10.068Z,1.80
2022-10-23T20:32:36.794Z,1.20
2022-10-23T20:35:03.846Z,0.82
2022-10-23T20:37:30.545Z,0.97
2022-10-23T20:39:57.195Z,0.73
2022-10-23T20:42:23.723Z,0.90
2022-10-23T20:44:50.413Z,0.80
2022-10-23T20:47:17.016Z,0.98
2022-10-23T20:49:43.765Z,0.87
2022-10-23T20:52:10.381Z,0.80
2022-10-23T20:54:38.214Z,1.00
2022-10-23T20:57:05.060Z,0.55
2022-10-23T20:59:31.866Z,1.15
2022-10-23T21:01:58.709Z,0.57
2022-10-23T21:04:28.049Z,0.52
2022-10-23T21:07:12.825Z,0.60
2022-10-23T21:09:40.128Z,0.82
2022-10-23T21:12:08.361Z,0.75
2022-10-23T21:14:35.320Z,0.70
2022-10-23T21:17:01.973Z,0.40
2022-10-23T21:19:28.503Z,0.52
2022-10-23T21:21:55.406Z,0.40
2022-10-23T21:24:24.691Z,0.40
2022-10-23T21:26:51.437Z,0.43
2022-10-23T21:29:19.479Z,0.50
2022-10-23T21:31:58.711Z,0.95
2022-10-23T21:34:26.171Z,0.45
2022-10-23T21:37:12.337Z,0.52
2022-10-23T21:39:40.236Z,0.50
2022-10-23T21:42:06.943Z,0.43
2022-10-23T21:44:33.699Z,0.43
2022-10-23T21:47:00.489Z,0.57
2022-10-23T21:49:27.171Z,1.27
2022-10-23T21:51:55.146Z,0.30
2022-10-23T21:54:22.195Z,0.50
2022-10-23T21:56:51.637Z,0.40
2022-10-23T21:59:21.106Z,0.50
2022-10-23T22:01:49.111Z,0.50
2022-10-23T22:04:17.678Z,0.47
2022-10-23T22:06:45.328Z,0.45
2022-10-23T22:09:14.840Z,0.93
2022-10-23T22:11:41.870Z,0.80
2022-10-23T22:14:09.094Z,0.68
2022-10-23T22:16:35.644Z,0.60
2022-10-23T22:19:02.215Z,0.52
2022-10-23T22:21:30.643Z,0.47
2022-10-23T22:23:59.895Z,0.43
2022-10-23T22:26:29.195Z,0.50
2022-10-23T22:28:58.048Z,0.43
2022-10-23T22:31:27.901Z,0.45
2022-10-23T22:33:57.337Z,0.80
2022-10-23T22:36:24.627Z,0.63
2022-10-23T22:38:51.980Z,0.93
2022-10-23T22:41:19.514Z,0.90
2022-10-23T22:43:46.167Z,0.77
2022-10-23T22:46:15.637Z,1.48
2022-10-23T22:48:43.882Z,1.20
2022-10-23T22:51:17.265Z,1.90
2022-10-23T22:53:44.724Z,3.00
2022-10-23T22:56:15.004Z,0.95
2022-10-23T22:58:42.045Z,3.60
2022-10-23T23:01:14.085Z,3.38
2022-10-23T23:03:42.607Z,3.88
2022-10-23T23:06:10.267Z,2.97
2022-10-23T23:08:38.595Z,2.92
2022-10-23T23:11:08.138Z,1.17
2022-10-23T23:13:35.047Z,1.50
2022-10-23T23:16:04.616Z,0.85
2022-10-23T23:18:32.024Z,1.00
2022-10-23T23:21:06.873Z,0.93
2022-10-23T23:23:33.369Z,1.35
2022-10-23T23:25:59.983Z,1.08
2022-10-23T23:28:26.479Z,1.80
2022-10-23T23:31:03.717Z,1.27
2022-10-23T23:33:30.479Z,3.38
2022-10-23T23:35:57.111Z,1.48
2022-10-23T23:38:23.779Z,1.02
2022-10-23T23:40:53.796Z,1.95
2022-10-23T23:43:20.709Z,1.80
2022-10-23T23:45:47.632Z,2.28
2022-10-23T23:48:14.351Z,2.35
2022-10-23T23:50:41.327Z,1.40
2022-10-23T23:53:08.165Z,2.17
2022-10-23T23:55:35.128Z,2.93
2022-10-23T23:58:02.117Z,2.75
